Ingram, Wisconsin
Current Conditions -  °F | °C
As of 1:55 PM on Friday 24 Oct 2014 (Local Time) from KRCX Reporting Station
Scattered Clouds Scattered Clouds  
Wind Chill: 60°   Ceiling: Unl
Heat Index: 60°   Visibility: 10mi
Dew Point: 51°   Wind: 12mph
Humidity: 70%   Direction: 190°S
Pressure: 29.88"   Gusts: 16mph
Location:  45.4952°N, 90.8481°W
Report Text: KRCX 241855Z AUTO 19010G14KT 10SM SCT045 16/10 A2988 RMK AO2 T01580103
Loading
Personal Weather Stations






























Interactive Weather Map
Tropical Storm Tracking
New forecast layout! Learn more

10-Day Weather Forecast

Advertisements
Track Severe Weather on mobile